Latest Weather Observations for Dubbo

IDN60801

Issued at 9:05 am EDT Tuesday 25 November 2014 (issued every 30 minutes, with the page automatically refreshed every 10 minutes)

About weather observations | Map of weather stations | Latest weather observations for NSW | Other Formats
Station Details ID: 065070 Name: DUBBO AIRPORT AWS Lat: -32.22 Lon: 148.58 Height: 284.0 m
Data from the previous 72 hours. | See also: Recent months at Dubbo
Date/Time
EDT
Temp
°C
App
Temp
°C
Dew
Point
Rel
Hum
%
Delta-T
°C
Wind Press
QNH
hPa
Press
MSL
hPa
Rain
since 9 am
mm
Dir
 
Spd
km/h
Gust
km/h
Spd
kts
Gust
kts
25/09:00am 18.1 13.9 11.0 63 3.9 S 24 33 13 18 1017.7 1016.6 5.4
25/08:30am 18.6 16.7 15.3 81 2.0 SSW 19 24 10 13 1017.2 1016.1 5.4
25/08:00am 18.7 16.9 16.1 85 1.6 SSW 20 30 11 16 1016.6 1015.5 5.4
25/07:30am 18.7 17.2 16.8 89 1.2 SW 20 30 11 16 1016.2 1015.1 5.4
25/07:00am 18.8 17.5 16.9 89 1.2 SW 19 26 10 14 1015.1 1014.0 5.4
25/06:30am 18.9 19.7 18.1 95 0.5 SW 11 19 6 10 1014.6 1013.5 5.4
25/06:00am 18.8 19.6 18.1 96 0.4 SW 11 15 6 8 1014.0 1012.9 5.4
25/05:30am 18.6 20.5 18.6 100 0.0 SW 6 11 3 6 1013.8 1012.7 5.4
25/05:00am 18.5 19.8 18.5 100 0.0 WSW 9 11 5 6 1013.4 1012.3 5.4
25/04:30am 18.6 20.0 18.6 100 0.0 WSW 9 11 5 6 1013.2 1012.1 5.4
25/04:00am 18.9 21.0 18.9 100 0.0 N 6 9 3 5 1013.1 1012.0 5.2
25/03:30am 19.1 20.3 19.1 100 0.0 N 11 13 6 7 1012.9 1011.8 4.8
25/03:00am 19.0 21.5 19.0 100 0.0 SE 4 9 2 5 1013.1 1012.0 4.4
25/02:30am 19.1 18.2 19.1 100 0.0 WSW 22 30 12 16 1014.2 1013.1 3.8
25/02:00am 20.7 19.3 20.5 99 0.1 W 28 43 15 23 1014.1 1013.0 3.2
25/01:30am 20.9 23.3 20.9 100 0.0 N 9 11 5 6 1013.0 1011.9 2.8
25/01:00am 21.1 22.4 20.9 99 0.1 NNW 15 20 8 11 1013.2 1012.1 2.4
25/12:30am 21.7 22.5 20.7 94 0.7 WNW 17 20 9 11 1013.7 1012.6 1.0
25/12:00am 22.0 23.5 20.5 91 1.0 NW 13 17 7 9 1013.2 1012.1 1.0
 
Date/Time
EDT
Temp
°C
App
Temp
°C
Dew
Point
Rel
Hum
%
Delta-T
°C
Wind Press
QNH
hPa
Press
MSL
hPa
Rain
since 9 am
mm
Dir
 
Spd
km/h
Gust
km/h
Spd
kts
Gust
kts
24/11:30pm 21.9 23.0 20.4 91 1.0 N 15 20 8 11 1013.0 1011.9 0.8
24/11:00pm 22.0 20.7 19.9 88 1.4 N 26 35 14 19 1012.7 1011.6 0.8
24/10:30pm 22.3 23.0 20.4 89 1.2 NNE 17 22 9 12 1013.0 1011.9 0.8
24/10:00pm 22.5 23.5 20.2 87 1.5 NNE 15 19 8 10 1013.2 1012.1 0.6
24/09:30pm 23.7 23.7 19.8 79 2.5 NNE 19 20 10 11 1012.1 1011.0 0.2
24/09:00pm 24.9 26.2 19.3 71 3.6 N 11 13 6 7 1011.6 1010.5 0.2
24/08:30pm 27.4 26.9 17.0 53 6.6 W 15 20 8 11 1011.5 1010.4 0.0
24/08:00pm 29.1 27.6 15.2 42 8.6 WSW 17 20 9 11 1010.6 1009.5 0.0
24/07:30pm 30.1 27.7 15.4 41 9.2 WSW 22 26 12 14 1009.8 1008.7 0.0
24/07:00pm 31.1 28.8 14.7 37 10.2 W 20 28 11 15 1008.7 1007.5 0.0
24/06:30pm 31.7 29.1 14.8 36 10.5 W 22 32 12 17 1007.8 1006.7 0.0
24/06:00pm 33.6 31.5 15.1 33 11.6 W 20 28 11 15 1007.6 1006.5 0.0
24/05:30pm 33.3 29.2 14.8 32 11.5 W 30 46 16 25 1007.8 1006.7 0.0
24/05:00pm 33.6 26.3 14.6 31 11.9 W 46 63 25 34 1008.2 1007.1 0.0
24/04:36pm 35.9 28.6 14.5 27 13.4 W 46 65 25 35 1007.8 1006.7 0.0
24/04:30pm 36.0 29.7 14.6 27 13.4 W 41 56 22 30 1007.8 1006.7 0.0
24/04:00pm 36.2 30.9 14.2 26 13.8 W 35 44 19 24 1008.1 1007.0 0.0
24/03:52pm 36.2 29.6 13.6 25 14.0 WSW 41 50 22 27 1008.1 1007.0 0.0
24/03:30pm 37.2 32.0 14.5 26 14.3 WNW 35 44 19 24 1008.2 1007.1 0.0
24/03:28pm 36.7 31.9 14.1 26 14.1 WNW 32 41 17 22 1008.2 1007.1 0.0
24/03:00pm 36.9 30.7 14.8 26 14.0 WSW 41 54 22 29 1008.4 1007.3 0.0
24/02:56pm 37.4 32.1 15.2 26 14.1 WSW 37 50 20 27 1008.4 1007.3 0.0
24/02:30pm 35.7 31.4 15.4 29 12.9 WNW 32 43 17 23 1008.9 1007.7 0.0
24/02:00pm 35.1 30.6 15.4 30 12.5 NW 33 46 18 25 1009.7 1008.6 0.0
24/01:30pm 34.4 31.2 16.3 34 11.6 WNW 28 35 15 19 1010.1 1009.0 0.0
24/01:00pm 34.3 31.2 16.6 34 11.4 NNW 28 35 15 19 1010.6 1009.5 0.0
24/12:30pm 33.5 28.6 16.4 36 10.9 N 37 48 20 26 1010.8 1009.7 0.0
24/12:00pm 34.2 29.2 16.1 34 11.5 N 37 48 20 26 1010.8 1009.7 0.0
24/11:30am 34.2 29.4 15.6 32 11.8 NNW 35 52 19 28 1011.1 1010.0 0.0
24/11:24am 34.2 30.0 15.6 32 11.8 NNW 32 52 17 28 1011.1 1010.0 0.0
24/11:00am 33.9 27.5 15.4 33 11.7 NNW 43 54 23 29 1011.2 1010.1 0.0
24/10:30am 35.8 30.0 15.0 29 13.1 N 39 52 21 28 1011.1 1010.0 0.0
24/10:00am 34.9 29.2 15.3 31 12.4 N 39 52 21 28 1011.3 1010.2 0.0
24/09:55am 34.8 29.1 14.1 28 12.9 N 37 52 20 28 1011.3 1010.2 0.0
24/09:30am 32.2 31.6 13.4 32 11.4 NNW 9 15 5 8 1011.8 1010.7 0.0
24/09:00am 30.9 30.9 13.7 35 10.5 N 6 11 3 6 1012.1 1011.0 0.0
24/08:30am 29.8 29.7 14.0 38 9.6 ENE 7 11 4 6 1012.1 1011.0 0.0
24/08:00am 28.9 28.1 13.9 39 9.1 E 11 15 6 8 1012.3 1011.1 0.0
24/07:30am 28.4 27.3 14.3 42 8.6 E 13 17 7 9 1012.3 1011.1 0.0
24/07:00am 26.2 25.2 14.6 48 7.0 E 13 15 7 8 1012.4 1011.3 0.0
24/06:30am 25.2 23.6 14.0 49 6.7 E 15 17 8 9 1012.3 1011.1 0.0
24/06:00am 25.1 23.1 13.9 49 6.7 E 17 22 9 12 1012.6 1011.5 0.0
24/05:30am 24.7 23.2 14.2 52 6.3 ENE 15 20 8 11 1012.1 1011.0 0.0
24/05:00am 24.2 22.6 14.0 53 6.1 ESE 15 17 8 9 1011.9 1010.8 0.0
24/04:30am 24.1 22.8 13.6 52 6.2 ESE 13 17 7 9 1012.4 1011.3 0.0
24/04:00am 25.1 23.5 13.9 49 6.7 ESE 15 17 8 9 1012.6 1011.5 0.0
24/03:30am 25.6 24.4 14.1 49 6.9 ESE 13 17 7 9 1013.0 1011.9 0.0
24/03:00am 26.0 25.0 14.5 49 7.0 ESE 13 17 7 9 1013.1 1012.0 0.0
24/02:30am 27.2 26.8 14.2 44 7.9 ENE 9 13 5 7 1012.7 1011.6 0.0
24/02:00am 27.9 26.1 14.5 44 8.2 NE 17 22 9 12 1013.0 1011.9 0.0
24/01:30am 28.4 26.5 14.3 42 8.6 NE 17 26 9 14 1013.1 1012.0 0.0
24/01:00am 29.2 26.7 14.2 40 9.1 NNE 20 30 11 16 1013.5 1012.4 0.0
24/12:30am 29.2 27.2 13.8 39 9.3 E 17 24 9 13 1013.1 1012.0 0.0
24/12:16am 29.3 24.7 13.5 38 9.5 NE 30 48 16 26 1013.3 1012.2 0.0
24/12:00am 30.8 25.8 12.2 32 11.1 NE 30 43 16 23 1013.9 1012.8 0.0
 
Date/Time
EDT
Temp
°C
App
Temp
°C
Dew
Point
Rel
Hum
%
Delta-T
°C
Wind Press
QNH
hPa
Press
MSL
hPa
Rain
since 9 am
mm
Dir
 
Spd
km/h
Gust
km/h
Spd
kts
Gust
kts
23/11:58pm 30.2 25.7 12.6 34 10.5 NE 28 43 15 23 1014.0 1012.9 0.0
23/11:30pm 29.6 27.4 10.7 31 10.9 SSE 13 15 7 8 1012.9 1011.8 0.0
23/11:00pm 29.8 27.6 10.9 31 11.0 S 13 15 7 8 1012.6 1011.5 0.0
23/10:30pm 28.6 26.1 9.8 31 10.7 SE 13 15 7 8 1012.6 1011.5 0.0
23/10:00pm 30.1 27.2 9.6 28 11.7 E 15 19 8 10 1012.8 1011.7 0.0
23/09:30pm 32.6 30.7 10.6 26 12.9 S 11 15 6 8 1012.0 1010.9 0.0
23/09:00pm 33.2 29.8 11.1 26 13.1 SSE 20 26 11 14 1010.9 1009.8 0.0
23/08:30pm 33.8 30.5 11.0 25 13.5 S 19 26 10 14 1010.4 1009.3 0.0
23/08:00pm 34.3 30.9 11.4 25 13.7 S 20 28 11 15 1010.2 1009.1 0.0
23/07:30pm 35.8 31.3 11.4 23 14.6 S 26 39 14 21 1009.8 1008.7 0.0
23/07:00pm 36.9 30.6 11.0 21 15.5 SSW 35 48 19 26 1009.1 1007.9 0.0
23/06:52pm 37.1 31.6 10.4 20 15.8 SSW 30 48 16 26 1009.1 1007.9 0.0
23/06:30pm 37.7 31.5 10.1 19 16.4 SSW 33 46 18 25 1008.6 1007.4 0.0
23/06:15pm 39.0 33.4 8.6 16 17.7 SSW 28 46 15 25 1008.3 1007.2 0.0
23/06:00pm 40.4 36.9 8.8 15 18.6 WNW 17 24 9 13 1007.9 1006.8 0.0
23/05:30pm 42.2 36.8 8.1 13 20.0 WNW 26 35 14 19 1007.7 1006.6 0.0
23/05:00pm 42.3 37.7 8.1 13 20.1 WNW 22 35 12 19 1007.9 1006.8 0.0
23/04:30pm 43.2 38.5 7.7 12 20.8 NNW 22 39 12 21 1008.0 1006.9 0.0
23/04:00pm 43.0 37.5 7.5 12 20.7 WNW 26 39 14 21 1008.6 1007.4 0.0
23/03:30pm 42.7 39.8 9.5 14 19.9 WNW 15 24 8 13 1009.1 1007.9 0.0
23/03:00pm 43.4 42.9 19.1 25 16.5 W 20 32 11 17 1009.7 1008.6 0.0
23/02:40pm 42.9 40.3 19.9 26 15.8 NW 33 56 18 30 1009.9 1008.8 0.0
23/02:30pm 43.3 42.6 20.2 26 15.9 NNW 24 41 13 22 1009.9 1008.8 0.0
23/02:00pm 41.8 40.1 18.9 26 15.5 WNW 26 39 14 21 1010.5 1009.4 0.0
23/01:34pm 43.2 42.5 21.8 29 15.0 NNW 28 48 15 26 1010.6 1009.5 0.0
23/01:30pm 43.0 42.2 21.7 29 14.9 NNW 28 35 15 19 1010.9 1009.8 0.0
23/01:00pm 42.1 41.9 22.0 31 14.1 NW 26 41 14 22 1011.1 1010.0 0.0
23/12:46pm 40.7 39.4 21.3 33 13.5 WNW 30 48 16 26 1011.4 1010.3 0.0
23/12:42pm 41.7 38.5 21.1 30 14.3 WNW 39 48 21 26 1011.4 1010.3 0.0
23/12:30pm 42.0 40.3 21.4 30 14.3 NNW 32 43 17 23 1011.6 1010.5 0.0
23/12:00pm 42.1 40.4 21.4 30 14.4 NNW 32 44 17 24 1011.8 1010.7 0.0
23/11:30am 40.6 39.5 20.2 31 14.0 NNW 26 37 14 20 1012.0 1010.9 0.0
23/11:00am 40.4 39.6 20.0 30 13.9 NNW 24 35 13 19 1012.1 1011.0 0.0
23/10:30am 39.5 38.3 19.2 30 13.7 N 24 39 13 21 1012.1 1011.0 0.0
23/10:00am 39.1 37.2 16.7 27 14.6 N 22 28 12 15 1012.3 1011.1 0.0
23/09:30am 37.3 36.2 16.3 29 13.6 NNE 17 24 9 13 1012.4 1011.3 0.0
23/09:00am 33.3 32.3 16.6 36 10.7 ENE 17 22 9 12 1012.5 1011.4 0.0
23/08:30am 29.9 28.1 15.6 42 8.9 ENE 19 28 10 15 1012.5 1011.4 0.0
23/08:00am 28.0 25.9 15.3 46 7.8 ENE 20 30 11 16 1012.3 1011.1 0.0
23/07:30am 25.2 23.3 11.7 43 7.8 ESE 13 15 7 8 1012.0 1010.9 0.0
23/07:00am 25.1 23.3 10.9 41 8.1 SE 11 15 6 8 1011.9 1010.8 0.0
23/06:30am 22.3 20.3 11.4 50 6.2 SSE 13 15 7 8 1011.5 1010.4 0.0
23/06:00am 20.7 17.7 10.5 52 5.6 SE 17 19 9 10 1011.2 1010.1 0.0
23/05:30am 22.0 18.6 10.5 48 6.4 SE 19 20 10 11 1010.9 1009.8 0.0
23/05:00am 22.8 20.3 10.9 47 6.7 SSE 15 17 8 9 1011.0 1009.9 0.0
23/04:30am 22.0 20.0 11.4 51 6.0 S 13 15 7 8 1010.7 1009.6 0.0
23/04:00am 22.2 20.9 11.3 50 6.1 SE 9 11 5 6 1010.4 1009.3 0.0
23/03:30am 22.7 20.9 12.0 50 6.1 SE 13 15 7 8 1010.3 1009.2 0.0
23/03:00am 21.7 20.3 10.8 50 6.1 ESE 9 9 5 5 1010.4 1009.3 0.0
23/02:30am 22.4 22.8 11.2 49 6.3 CALM 0 4 0 2 1010.5 1009.4 0.0
23/02:00am 21.8 20.7 10.6 49 6.2 ESE 7 11 4 6 1010.8 1009.7 0.0
23/01:30am 23.7 20.9 11.4 46 7.0 SE 17 20 9 11 1011.1 1010.0 0.0
23/01:00am 23.9 22.6 11.2 44 7.2 SSE 9 13 5 7 1011.3 1010.2 0.0
23/12:30am 24.2 23.9 11.5 45 7.3 ENE 4 7 2 4 1011.5 1010.4 0.0
23/12:00am 23.6 22.4 11.6 47 6.8 SE 9 11 5 6 1011.6 1010.5 0.0
 
Date/Time
EDT
Temp
°C
App
Temp
°C
Dew
Point
Rel
Hum
%
Delta-T
°C
Wind Press
QNH
hPa
Press
MSL
hPa
Rain
since 9 am
mm
Dir
 
Spd
km/h
Gust
km/h
Spd
kts
Gust
kts
22/11:30pm 23.0 21.3 11.1 47 6.7 E 11 13 6 7 1011.8 1010.7 0.0
22/11:00pm 25.4 23.2 9.3 36 8.9 SE 11 13 6 7 1011.9 1010.8 0.0
22/10:30pm 25.9 23.8 9.7 36 9.0 SSE 11 13 6 7 1012.0 1010.9 0.0
22/10:00pm 26.1 23.9 9.4 35 9.3 SSE 11 13 6 7 1011.9 1010.8 0.0
22/09:30pm 26.8 24.4 8.7 32 10.0 SSE 11 13 6 7 1011.6 1010.5 0.0
22/09:00pm 28.9 27.3 10.1 31 10.7 SSW 9 11 5 6 1011.3 1010.2 0.0
22/08:30pm 29.0 27.8 11.6 34 10.2 SW 9 9 5 5 1011.1 1010.0 0.0
22/08:00pm 31.7 30.2 12.0 30 11.7 SW 11 13 6 7 1010.9 1009.8 0.0
22/07:30pm 33.6 31.8 12.0 27 12.9 WSW 13 17 7 9 1010.4 1009.3 0.0
22/07:00pm 36.2 34.1 14.8 28 13.5 WSW 19 26 10 14 1009.9 1008.8 0.0
22/06:30pm 37.8 36.2 15.0 26 14.5 SW 17 20 9 11 1009.4 1008.3 0.0
22/06:00pm 37.2 34.9 16.7 29 13.3 WSW 24 32 13 17 1009.4 1008.3 0.0
22/05:30pm 38.5 36.3 17.8 29 13.7 WNW 26 37 14 20 1009.3 1008.2 0.0
22/05:00pm 38.7 38.3 18.0 29 13.7 W 17 28 9 15 1009.5 1008.4 0.0
22/04:30pm 38.9 37.6 18.2 30 13.8 WSW 22 39 12 21 1009.6 1008.5 0.0
22/04:00pm 38.9 36.6 17.6 28 14.1 W 26 37 14 20 1009.9 1008.8 0.0
22/03:30pm 38.5 38.6 18.3 30 13.4 NW 15 20 8 11 1010.4 1009.3 0.0
22/03:00pm 38.1 37.3 18.0 30 13.3 WNW 19 39 10 21 1010.5 1009.4 0.0
22/02:30pm 38.4 38.0 19.3 33 12.9 WNW 20 32 11 17 1010.9 1009.8 0.0
22/02:00pm 36.9 36.7 18.4 33 12.3 WNW 17 26 9 14 1011.2 1010.1 0.0
22/01:30pm 36.7 35.8 18.3 34 12.2 W 20 30 11 16 1011.7 1010.6 0.0
22/01:00pm 37.0 33.7 16.0 28 13.5 WNW 28 35 15 19 1011.9 1010.8 0.0
22/12:30pm 35.6 34.5 13.1 25 13.8 W 11 20 6 11 1012.5 1011.4 0.0
22/12:00pm 35.7 32.9 11.4 23 14.6 NW 17 28 9 15 1012.9 1011.8 0.0
22/11:30am 33.7 32.1 12.7 28 12.7 NNW 13 22 7 12 1013.1 1012.0 0.0
22/11:00am 33.2 32.4 15.2 33 11.3 NE 13 20 7 11 1013.2 1012.1 0.0
22/10:30am 32.2 31.0 16.1 38 10.2 E 17 26 9 14 1013.6 1012.5 0.0
22/10:00am 31.2 29.7 16.4 41 9.4 E 19 26 10 14 1013.7 1012.6 0.0
22/09:30am 29.6 28.0 16.1 44 8.5 E 19 24 10 13 1013.8 1012.7 0.0

Other Formats:

Comma delimited format used in spreadsheet applications
http://www.bom.gov.au/fwo/IDN60801/IDN60801.95719.axf

JavaScript Object Notation format (JSON) in row-major order
http://www.bom.gov.au/fwo/IDN60801/IDN60801.95719.json